Main page
METAR-TAF:

METAR-TAF

Airports :

Sir Seretse Khama International Airport

Gaborone, Botswana

latitude: 24-13S, longitude: 025-55E, elevation: 1005 m

Current weather observation

The report was made 5 hours and 16 minutes ago, at 19:00 UTC
Wind 2 kt from the Northeast
Temperature 12°C
Humidity 54%
Pressure 1031 hPa
Visibility 10 km or more
no clouds below 1500 m and no cumulonimbus

METAR: FBSK 231900Z 04002KT CAVOK 12/03 Q1031 NOSIG

Time: 02:16 (00:16 UTC)

Forecast

The report was made 2 hours and 16 minutes ago, at 22:00 UTC
Forecast valid from 24 at 00 UTC to 25 at 06 UTC
Wind 5 kt from the East
Visibility 10 km or more
no clouds below 1500 m and no cumulonimbus
Becoming
from 24 at 06 UTC to 24 at 08 UTC
Scattered clouds at a height of 1500 ft
Becoming
from 24 at 10 UTC to 24 at 12 UTC
Broken clouds at a height of 2000 ft

TAF: FBSK 232200Z 2400/2506 08005KT CAVOK BECMG 2406/2408 SCT015 BECMG 2410/2412 BKN020

Weather observations and forecasts of more than 4000 airports (METAR and TAF reports).

The available stations are represented by yellow and red dots on the map.

Hover mouse over dot to see the name of the station.

Then click to see weather observations and forecasts.

To change the map : click on the green buttons with a black cross to zoom in, on the green button with a dash to zoom out, or on the green arrows for adjacent maps.


METAR-TAF: